createdAt,value
2019-03-30T00:00:20.323Z,96.30
2019-03-30T00:01:56.658Z,96.30
2019-03-30T00:03:32.914Z,96.50
2019-03-30T00:05:09.238Z,96.60
2019-03-30T00:06:45.587Z,96.80
2019-03-30T00:08:22.067Z,96.80
2019-03-30T00:09:58.365Z,97.00
2019-03-30T00:11:34.606Z,97.00
2019-03-30T00:13:10.980Z,97.20
2019-03-30T00:14:47.397Z,97.10
2019-03-30T00:16:23.915Z,97.40
2019-03-30T00:18:00.425Z,97.00
2019-03-30T00:19:36.500Z,97.00
2019-03-30T00:21:12.848Z,97.00
2019-03-30T00:22:48.876Z,97.10
2019-03-30T00:24:25.206Z,97.20
2019-03-30T00:26:01.541Z,97.20
2019-03-30T00:27:37.869Z,97.40
2019-03-30T00:29:14.098Z,97.50
2019-03-30T00:30:50.339Z,97.40
2019-03-30T00:32:27.618Z,97.80
2019-03-30T00:34:03.806Z,97.50
2019-03-30T00:35:40.067Z,97.90
2019-03-30T00:37:16.536Z,97.80
2019-03-30T00:38:53.090Z,97.80
2019-03-30T00:40:29.512Z,98.00
2019-03-30T00:42:07.432Z,97.90
2019-03-30T00:43:43.618Z,98.00
2019-03-30T00:45:20.039Z,97.90
2019-03-30T00:46:56.391Z,97.90
2019-03-30T00:48:32.737Z,97.70
2019-03-30T00:50:09.370Z,98.00
2019-03-30T00:51:45.886Z,97.90
2019-03-30T00:53:22.223Z,97.90
2019-03-30T00:54:58.382Z,98.50
2019-03-30T00:56:34.702Z,98.30
2019-03-30T00:58:10.901Z,98.20
2019-03-30T00:59:47.316Z,98.30
2019-03-30T01:01:23.639Z,98.20
2019-03-30T01:02:59.937Z,98.20
2019-03-30T01:04:36.533Z,98.40
2019-03-30T01:06:12.941Z,98.40
2019-03-30T01:07:49.177Z,98.30
2019-03-30T01:09:26.576Z,98.30
2019-03-30T01:11:02.445Z,98.20
2019-03-30T01:12:38.712Z,98.10
2019-03-30T01:14:14.951Z,98.10
2019-03-30T01:15:51.179Z,98.10
2019-03-30T01:17:27.336Z,98.10
2019-03-30T01:19:03.598Z,98.30
2019-03-30T01:20:39.910Z,98.30
2019-03-30T01:22:16.255Z,98.40
2019-03-30T01:23:53.678Z,98.40
2019-03-30T01:25:29.776Z,98.40
2019-03-30T01:27:06.252Z,98.30
2019-03-30T01:28:42.413Z,97.90
2019-03-30T01:30:23.316Z,98.10
2019-03-30T01:31:57.013Z,98.30
2019-03-30T01:33:33.153Z,98.40
2019-03-30T01:35:09.689Z,98.40
2019-03-30T01:36:45.891Z,98.40
2019-03-30T01:38:22.317Z,98.40
2019-03-30T01:39:58.562Z,98.50
2019-03-30T01:41:34.740Z,98.50
2019-03-30T01:43:10.939Z,98.70
2019-03-30T01:44:47.199Z,98.70
2019-03-30T01:46:23.466Z,98.80
2019-03-30T01:47:59.810Z,98.90
2019-03-30T01:49:36.118Z,99.10
2019-03-30T01:51:12.386Z,99.00
2019-03-30T01:52:48.745Z,99.10
2019-03-30T01:54:24.993Z,99.20
2019-03-30T01:56:01.191Z,99.40
2019-03-30T01:57:37.357Z,99.40
2019-03-30T01:59:13.620Z,99.60
2019-03-30T02:00:49.946Z,99.60
2019-03-30T02:02:26.104Z,99.60
2019-03-30T02:04:02.266Z,99.70
2019-03-30T02:05:38.502Z,99.70
2019-03-30T02:07:14.724Z,99.60
2019-03-30T02:08:50.881Z,99.50
2019-03-30T02:10:46.719Z,99.70
2019-03-30T02:12:22.810Z,99.80
2019-03-30T02:13:59.076Z,99.40
2019-03-30T02:15:35.373Z,99.30
2019-03-30T02:17:11.682Z,99.20
2019-03-30T02:18:47.983Z,99.30
2019-03-30T02:20:39.855Z,99.40
2019-03-30T02:22:15.907Z,99.50
2019-03-30T02:23:52.318Z,99.60
2019-03-30T02:25:28.423Z,99.40
2019-03-30T02:27:04.809Z,99.50
2019-03-30T02:28:41.139Z,99.40
2019-03-30T02:30:17.400Z,99.30
2019-03-30T02:31:53.618Z,99.50
2019-03-30T02:33:29.722Z,99.50
2019-03-30T02:35:07.940Z,99.50
2019-03-30T02:36:44.241Z,99.60
2019-03-30T02:38:20.554Z,99.50
2019-03-30T02:39:56.866Z,99.50
2019-03-30T02:41:33.004Z,99.50
2019-03-30T02:43:09.250Z,99.50
2019-03-30T02:44:45.411Z,99.60
2019-03-30T02:46:21.685Z,99.50
2019-03-30T02:47:57.998Z,99.60
2019-03-30T02:49:34.157Z,99.50
2019-03-30T02:51:10.382Z,99.50
2019-03-30T02:52:46.604Z,99.50
2019-03-30T02:54:22.818Z,99.50
2019-03-30T02:55:59.080Z,99.70
2019-03-30T02:57:35.379Z,99.50
2019-03-30T02:59:11.762Z,99.50
2019-03-30T03:00:48.254Z,99.60
2019-03-30T03:02:24.358Z,99.50
2019-03-30T03:04:00.587Z,99.40
2019-03-30T03:05:38.079Z,99.30
2019-03-30T03:07:14.280Z,99.40
2019-03-30T03:08:50.508Z,99.30
2019-03-30T03:10:27.004Z,99.20
2019-03-30T03:12:03.323Z,99.20
2019-03-30T03:13:40.739Z,99.20
2019-03-30T03:15:17.441Z,99.30
2019-03-30T03:16:54.887Z,99.30
2019-03-30T03:18:31.114Z,99.20
2019-03-30T03:20:10.400Z,99.20
2019-03-30T03:21:46.578Z,99.30
2019-03-30T03:23:22.937Z,99.20
2019-03-30T03:24:59.109Z,99.20
2019-03-30T03:26:35.339Z,99.20
2019-03-30T03:28:11.446Z,99.20
2019-03-30T03:29:47.717Z,99.30
2019-03-30T03:31:23.847Z,99.20
2019-03-30T03:33:00.157Z,99.10
2019-03-30T03:34:36.505Z,99.10
2019-03-30T03:36:12.827Z,99.10
2019-03-30T03:37:48.681Z,99.00
2019-03-30T03:39:24.839Z,99.00
2019-03-30T03:41:02.545Z,98.90
2019-03-30T03:42:38.823Z,99.00
2019-03-30T03:44:16.785Z,99.20
2019-03-30T03:45:52.843Z,98.70
2019-03-30T03:47:29.013Z,98.50
2019-03-30T03:49:05.153Z,98.40
2019-03-30T03:50:44.844Z,98.70
2019-03-30T03:52:22.842Z,98.60
2019-03-30T03:53:59.149Z,98.40
2019-03-30T03:55:37.518Z,98.90
2019-03-30T03:57:16.733Z,98.90
2019-03-30T03:58:57.079Z,98.80
2019-03-30T04:00:34.577Z,98.70
2019-03-30T04:02:14.439Z,98.70
2019-03-30T04:03:53.638Z,98.70
2019-03-30T04:05:31.444Z,98.70
2019-03-30T04:07:09.112Z,98.60
2019-03-30T04:08:47.990Z,98.80
2019-03-30T04:10:28.682Z,98.90
2019-03-30T04:12:08.444Z,98.80
2019-03-30T04:13:47.855Z,99.20
2019-03-30T04:15:27.227Z,98.90
2019-03-30T04:17:03.617Z,99.00
2019-03-30T04:18:39.855Z,99.10
2019-03-30T04:20:20.542Z,99.20
2019-03-30T04:21:56.698Z,99.10
2019-03-30T04:23:32.796Z,99.20
2019-03-30T04:25:09.132Z,99.20
2019-03-30T04:26:45.304Z,99.20
2019-03-30T04:28:21.602Z,99.10
2019-03-30T04:29:57.755Z,99.10
2019-03-30T04:31:33.987Z,98.90
2019-03-30T04:33:10.398Z,98.80
2019-03-30T04:34:46.551Z,99.10
2019-03-30T04:36:22.666Z,98.80
2019-03-30T04:37:58.838Z,98.80
2019-03-30T04:39:35.024Z,98.70
2019-03-30T04:41:11.183Z,98.70
2019-03-30T04:42:47.373Z,98.60
2019-03-30T04:44:23.603Z,98.60
2019-03-30T04:45:59.864Z,98.60
2019-03-30T04:47:35.970Z,98.70
2019-03-30T04:49:12.135Z,98.50
2019-03-30T04:50:48.296Z,98.40
2019-03-30T04:52:24.522Z,98.30
2019-03-30T04:54:00.658Z,98.10
2019-03-30T04:55:36.890Z,98.00
2019-03-30T04:57:13.057Z,97.80
2019-03-30T04:58:49.263Z,97.70
2019-03-30T05:00:25.502Z,97.80
2019-03-30T05:02:01.760Z,97.90
2019-03-30T05:03:37.995Z,98.00
2019-03-30T05:05:14.298Z,98.10
2019-03-30T05:06:51.659Z,97.90
2019-03-30T05:08:27.828Z,97.90
2019-03-30T05:10:06.243Z,97.80
2019-03-30T05:11:42.313Z,97.70
2019-03-30T05:13:19.140Z,97.70
2019-03-30T05:14:55.299Z,97.90
2019-03-30T05:16:31.635Z,97.90
2019-03-30T05:18:07.740Z,98.00
2019-03-30T05:19:43.923Z,98.10
2019-03-30T05:21:20.087Z,98.10
2019-03-30T05:22:56.253Z,98.20
2019-03-30T05:24:32.518Z,98.20
2019-03-30T05:26:08.757Z,98.30
2019-03-30T05:27:44.753Z,98.30
2019-03-30T05:29:20.853Z,98.30
2019-03-30T05:30:57.051Z,98.40
2019-03-30T05:32:33.253Z,98.40
2019-03-30T05:34:09.503Z,98.20
2019-03-30T05:35:45.810Z,98.20
2019-03-30T05:37:22.158Z,98.10
2019-03-30T05:38:58.394Z,98.00
2019-03-30T05:40:34.556Z,98.10
2019-03-30T05:42:10.883Z,98.20
2019-03-30T05:43:47.084Z,98.50
2019-03-30T05:45:23.357Z,98.20
2019-03-30T05:46:59.674Z,98.20
2019-03-30T05:48:35.874Z,98.20
2019-03-30T05:50:12.674Z,98.30
2019-03-30T05:51:49.014Z,98.30
2019-03-30T05:53:25.318Z,98.20
2019-03-30T05:55:01.555Z,98.10
2019-03-30T05:56:37.894Z,97.80
2019-03-30T05:58:14.124Z,97.60
2019-03-30T05:59:50.300Z,97.90
2019-03-30T06:01:27.286Z,98.00
2019-03-30T06:03:03.457Z,98.00
2019-03-30T06:04:39.718Z,98.20
2019-03-30T06:06:15.832Z,98.20
2019-03-30T06:07:52.149Z,98.20
2019-03-30T06:09:29.411Z,98.20
2019-03-30T06:11:05.721Z,98.30
2019-03-30T06:12:41.885Z,98.20
2019-03-30T06:14:18.003Z,98.20
2019-03-30T06:15:54.099Z,98.10
2019-03-30T06:17:30.299Z,98.10
2019-03-30T06:19:06.726Z,98.00
2019-03-30T06:20:43.004Z,97.90
2019-03-30T06:22:19.332Z,97.80
2019-03-30T06:23:55.561Z,97.80
2019-03-30T06:25:31.721Z,97.60
2019-03-30T06:27:07.996Z,97.60
2019-03-30T06:28:44.254Z,97.50
2019-03-30T06:30:26.566Z,97.30
2019-03-30T06:32:02.795Z,97.30
2019-03-30T06:33:39.034Z,97.10
2019-03-30T06:35:15.336Z,97.00
2019-03-30T06:36:51.566Z,96.90
2019-03-30T06:38:27.726Z,96.80
2019-03-30T06:40:05.073Z,96.60
2019-03-30T06:41:41.158Z,96.50
2019-03-30T06:43:17.376Z,96.30
2019-03-30T06:44:53.568Z,96.20
2019-03-30T06:46:29.763Z,96.00
2019-03-30T06:48:06.157Z,95.90
2019-03-30T06:49:42.342Z,95.80
2019-03-30T06:51:18.504Z,95.70
2019-03-30T06:52:58.132Z,95.60
2019-03-30T06:54:32.654Z,95.40
2019-03-30T06:56:08.989Z,95.30
2019-03-30T06:57:45.396Z,95.30
2019-03-30T06:59:21.650Z,95.20
2019-03-30T07:00:58.276Z,95.00
2019-03-30T07:02:35.097Z,95.00
2019-03-30T07:04:11.517Z,94.90
2019-03-30T07:05:47.847Z,94.70
2019-03-30T07:07:26.850Z,94.70
2019-03-30T07:09:04.988Z,94.60
2019-03-30T07:10:42.724Z,94.50
2019-03-30T07:12:22.436Z,94.50
2019-03-30T07:14:02.735Z,94.40
2019-03-30T07:15:47.612Z,94.30
2019-03-30T07:17:25.007Z,94.30
2019-03-30T07:19:04.880Z,94.10
2019-03-30T07:20:42.239Z,94.00
2019-03-30T07:22:18.430Z,94.10
2019-03-30T07:23:54.500Z,93.90
2019-03-30T07:25:30.627Z,93.80
2019-03-30T07:27:06.966Z,93.60
2019-03-30T07:28:43.208Z,93.20
2019-03-30T07:30:19.334Z,93.30
2019-03-30T07:31:55.658Z,93.20
2019-03-30T07:33:31.812Z,93.10
2019-03-30T07:35:08.519Z,93.00
2019-03-30T07:36:44.851Z,92.80
2019-03-30T07:38:21.078Z,92.70
2019-03-30T07:39:57.235Z,92.70
2019-03-30T07:41:33.395Z,92.70
2019-03-30T07:43:09.635Z,92.70
2019-03-30T07:44:46.814Z,92.30
2019-03-30T07:46:23.232Z,92.20
2019-03-30T07:47:59.547Z,92.10
2019-03-30T07:49:35.710Z,92.10
2019-03-30T07:51:11.905Z,92.10
2019-03-30T07:52:47.692Z,92.30
2019-03-30T07:54:23.915Z,92.00
2019-03-30T07:56:08.205Z,91.90
2019-03-30T07:57:38.111Z,92.10
2019-03-30T07:59:14.275Z,91.70
2019-03-30T08:00:50.502Z,91.70
2019-03-30T08:02:26.757Z,91.70
2019-03-30T08:04:02.993Z,91.60
2019-03-30T08:05:39.298Z,91.40
2019-03-30T08:07:15.532Z,91.30
2019-03-30T08:08:51.725Z,91.20
2019-03-30T08:10:27.946Z,91.20
2019-03-30T08:12:04.284Z,91.10
2019-03-30T08:13:40.434Z,91.10
2019-03-30T08:15:16.946Z,91.00
2019-03-30T08:16:53.212Z,91.00
2019-03-30T08:18:29.555Z,90.60
2019-03-30T08:20:08.795Z,90.50
2019-03-30T08:21:44.808Z,90.30
2019-03-30T08:23:21.043Z,90.20
2019-03-30T08:24:57.283Z,90.00
2019-03-30T08:26:35.616Z,89.20
2019-03-30T08:28:11.609Z,88.20
2019-03-30T08:29:47.956Z,88.40
2019-03-30T08:31:24.206Z,87.80
2019-03-30T08:33:00.628Z,87.70
2019-03-30T08:34:36.860Z,87.60
2019-03-30T08:36:13.175Z,87.20
2019-03-30T08:37:49.518Z,86.90
2019-03-30T08:39:26.186Z,86.40
2019-03-30T08:41:02.597Z,85.60
2019-03-30T08:42:38.947Z,85.50
2019-03-30T08:44:16.382Z,85.70
2019-03-30T08:45:53.681Z,85.20
2019-03-30T08:47:32.013Z,85.20
2019-03-30T08:49:08.333Z,84.70
2019-03-30T08:50:44.573Z,84.20
2019-03-30T08:52:20.842Z,83.80
2019-03-30T08:53:58.116Z,83.90
2019-03-30T08:55:34.428Z,83.90
2019-03-30T08:57:10.667Z,82.90
2019-03-30T08:58:46.951Z,82.50
2019-03-30T09:00:41.664Z,82.30
2019-03-30T09:02:18.021Z,82.50
2019-03-30T09:03:54.259Z,82.70
2019-03-30T09:05:30.534Z,82.00
2019-03-30T09:07:06.883Z,81.50
2019-03-30T09:08:43.191Z,80.70
2019-03-30T09:10:19.431Z,80.40
2019-03-30T09:11:55.750Z,80.00
2019-03-30T09:13:32.103Z,79.80
2019-03-30T09:15:09.314Z,79.30
2019-03-30T09:16:45.542Z,78.80
2019-03-30T09:18:21.825Z,78.50
2019-03-30T09:19:58.024Z,78.60
2019-03-30T09:21:34.332Z,78.20
2019-03-30T09:23:10.582Z,78.00
2019-03-30T09:24:46.896Z,78.00
2019-03-30T09:26:23.221Z,78.10
2019-03-30T09:27:59.394Z,77.70
2019-03-30T09:29:35.552Z,77.30
2019-03-30T09:31:12.238Z,77.20
2019-03-30T09:32:48.501Z,77.40
2019-03-30T09:34:24.753Z,77.00
2019-03-30T09:36:01.070Z,77.00
2019-03-30T09:37:37.253Z,76.30
2019-03-30T09:39:14.824Z,75.90
2019-03-30T09:40:52.266Z,75.90
2019-03-30T09:42:28.575Z,75.40
2019-03-30T09:44:04.887Z,75.10
2019-03-30T09:45:41.183Z,74.30
2019-03-30T09:47:17.383Z,73.50
2019-03-30T09:48:53.632Z,73.20
2019-03-30T09:50:29.977Z,72.90
2019-03-30T09:52:06.220Z,72.10
2019-03-30T09:53:44.187Z,71.40
2019-03-30T09:55:20.419Z,70.60
2019-03-30T09:56:56.773Z,69.90
2019-03-30T09:58:33.097Z,69.80
2019-03-30T10:00:10.118Z,68.50
2019-03-30T10:01:46.289Z,67.10
2019-03-30T10:03:23.886Z,68.50
2019-03-30T10:05:00.401Z,65.60
2019-03-30T10:06:36.526Z,64.80
2019-03-30T10:08:12.776Z,63.50
2019-03-30T10:09:48.946Z,62.00
2019-03-30T10:11:25.213Z,61.00
2019-03-30T10:13:01.521Z,59.80
2019-03-30T10:14:38.960Z,59.00
2019-03-30T10:16:15.219Z,58.00
2019-03-30T10:17:51.552Z,58.60
2019-03-30T10:19:27.986Z,57.40
2019-03-30T10:21:04.187Z,56.80
2019-03-30T10:22:42.108Z,56.50
2019-03-30T10:24:18.507Z,55.00
2019-03-30T10:25:54.682Z,55.10
2019-03-30T10:27:30.782Z,55.30
2019-03-30T10:29:07.016Z,55.00
2019-03-30T10:30:44.540Z,55.10
2019-03-30T10:32:20.869Z,54.50
2019-03-30T10:33:57.282Z,54.00
2019-03-30T10:35:33.630Z,51.10
2019-03-30T10:37:09.953Z,53.70
2019-03-30T10:38:46.122Z,52.80
2019-03-30T10:40:22.373Z,53.90
2019-03-30T10:41:58.621Z,54.00
2019-03-30T10:43:34.787Z,51.50
2019-03-30T10:45:11.221Z,51.60
2019-03-30T10:46:48.581Z,52.50
2019-03-30T10:48:24.723Z,52.10
2019-03-30T10:50:00.902Z,52.60
2019-03-30T10:51:37.063Z,52.40
2019-03-30T10:53:13.396Z,52.70
2019-03-30T10:54:52.914Z,52.50
2019-03-30T10:56:27.678Z,50.70
2019-03-30T10:58:03.916Z,51.50
2019-03-30T10:59:40.105Z,51.60
2019-03-30T11:01:16.341Z,51.10
2019-03-30T11:02:52.618Z,52.10
2019-03-30T11:04:28.680Z,50.60
2019-03-30T11:06:04.943Z,51.30
2019-03-30T11:07:41.185Z,51.80
2019-03-30T11:09:17.455Z,52.50
2019-03-30T11:10:53.555Z,51.70
2019-03-30T11:12:31.029Z,50.40
2019-03-30T11:14:07.457Z,51.60
2019-03-30T11:15:43.515Z,51.50
2019-03-30T11:17:19.866Z,51.50
2019-03-30T11:18:56.017Z,51.80
2019-03-30T11:20:32.365Z,51.20
2019-03-30T11:22:08.470Z,49.90
2019-03-30T11:23:44.668Z,51.20
2019-03-30T11:25:20.870Z,50.00
2019-03-30T11:26:57.068Z,49.60
2019-03-30T11:28:33.312Z,50.90
2019-03-30T11:30:10.652Z,50.00
2019-03-30T11:31:46.958Z,50.10
2019-03-30T11:33:23.166Z,50.10
2019-03-30T11:34:58.892Z,48.70
2019-03-30T11:36:35.130Z,48.40
2019-03-30T11:38:11.223Z,49.40
2019-03-30T11:39:47.648Z,48.00
2019-03-30T11:41:25.203Z,48.50
2019-03-30T11:43:01.329Z,48.40
2019-03-30T11:44:37.631Z,48.90
2019-03-30T11:46:13.841Z,46.70
2019-03-30T11:47:51.216Z,48.30
2019-03-30T11:49:27.395Z,48.00
2019-03-30T11:51:03.629Z,48.10
2019-03-30T11:52:39.766Z,46.60
2019-03-30T11:54:15.977Z,47.70
2019-03-30T11:55:52.076Z,48.10
2019-03-30T11:57:28.308Z,47.60
2019-03-30T11:59:04.717Z,47.80
2019-03-30T12:00:40.988Z,48.80
2019-03-30T12:02:27.826Z,47.00
2019-03-30T12:03:55.151Z,47.30
2019-03-30T12:05:31.339Z,47.80
2019-03-30T12:07:07.692Z,47.20
2019-03-30T12:08:43.951Z,46.10
2019-03-30T12:10:20.196Z,47.10
2019-03-30T12:11:56.514Z,46.30
2019-03-30T12:13:32.685Z,46.70
2019-03-30T12:15:09.389Z,46.20
2019-03-30T12:16:45.635Z,45.50
2019-03-30T12:18:21.799Z,45.50
2019-03-30T12:19:58.035Z,44.90
2019-03-30T12:21:34.206Z,45.60
2019-03-30T12:23:10.217Z,43.50
2019-03-30T12:24:46.530Z,46.30
2019-03-30T12:26:22.878Z,46.40
2019-03-30T12:27:59.244Z,46.00
2019-03-30T12:29:35.316Z,45.50
2019-03-30T12:31:12.426Z,46.90
2019-03-30T12:32:48.699Z,47.60
2019-03-30T12:34:24.979Z,46.40
2019-03-30T12:36:01.313Z,46.50
2019-03-30T12:37:38.024Z,45.80
2019-03-30T12:39:14.194Z,46.20
2019-03-30T12:40:50.462Z,45.90
2019-03-30T12:42:26.673Z,46.20
2019-03-30T12:44:02.947Z,45.60
2019-03-30T12:45:40.447Z,44.60
2019-03-30T12:47:16.657Z,44.20
2019-03-30T12:48:52.891Z,43.90
2019-03-30T12:50:29.230Z,43.80
2019-03-30T12:52:05.470Z,43.90
2019-03-30T12:53:50.230Z,45.00
2019-03-30T12:55:19.984Z,44.90
2019-03-30T12:56:56.088Z,44.30
2019-03-30T12:58:32.280Z,44.70
2019-03-30T13:00:09.792Z,45.10
2019-03-30T13:01:46.060Z,44.90
2019-03-30T13:03:22.310Z,45.40
2019-03-30T13:04:58.552Z,44.40
2019-03-30T13:06:34.863Z,43.90
2019-03-30T13:08:11.127Z,44.20
2019-03-30T13:09:47.396Z,43.60
2019-03-30T13:11:23.639Z,43.90
2019-03-30T13:12:59.805Z,43.20
2019-03-30T13:14:36.048Z,43.90
2019-03-30T13:16:12.297Z,43.70
2019-03-30T13:17:48.460Z,43.80
2019-03-30T13:19:24.566Z,43.00
2019-03-30T13:21:00.805Z,41.80
2019-03-30T13:22:37.117Z,41.70
2019-03-30T13:24:13.387Z,41.30
2019-03-30T13:26:02.524Z,40.80
2019-03-30T13:27:27.908Z,41.20
2019-03-30T13:29:04.662Z,42.10
2019-03-30T13:30:42.018Z,42.50
2019-03-30T13:32:18.163Z,42.40
2019-03-30T13:33:54.410Z,42.40
2019-03-30T13:35:30.651Z,43.10
2019-03-30T13:37:20.144Z,43.30
2019-03-30T13:38:56.354Z,43.00
2019-03-30T13:40:32.629Z,42.30
2019-03-30T13:42:08.830Z,42.10
2019-03-30T13:43:45.008Z,42.90
2019-03-30T13:45:21.218Z,41.80
2019-03-30T13:46:57.292Z,42.40
2019-03-30T13:48:33.538Z,41.90
2019-03-30T13:50:10.221Z,41.60
2019-03-30T13:51:46.372Z,41.30
2019-03-30T13:53:22.950Z,41.00
2019-03-30T13:54:59.121Z,41.00
2019-03-30T13:56:36.559Z,41.40
2019-03-30T13:58:12.669Z,41.50
2019-03-30T13:59:48.849Z,41.80
2019-03-30T14:01:25.033Z,41.30
2019-03-30T14:03:01.373Z,41.50
2019-03-30T14:04:37.621Z,40.20
2019-03-30T14:06:13.957Z,40.20
2019-03-30T14:07:50.270Z,41.50
2019-03-30T14:09:26.379Z,41.40
2019-03-30T14:11:02.734Z,41.50
2019-03-30T14:12:38.987Z,41.30
2019-03-30T14:14:15.386Z,41.50
2019-03-30T14:15:51.397Z,40.90
2019-03-30T14:17:28.863Z,41.40
2019-03-30T14:19:05.098Z,41.50
2019-03-30T14:20:41.340Z,41.90
2019-03-30T14:22:17.545Z,41.40
2019-03-30T14:23:53.851Z,41.50
2019-03-30T14:25:30.213Z,41.30
2019-03-30T14:27:06.457Z,41.10
2019-03-30T14:28:42.556Z,40.60
2019-03-30T14:30:20.404Z,41.20
2019-03-30T14:31:56.235Z,41.10
2019-03-30T14:33:32.338Z,41.10
2019-03-30T14:35:09.339Z,42.50
2019-03-30T14:36:45.575Z,42.00
2019-03-30T14:38:21.315Z,41.90
2019-03-30T14:39:57.412Z,42.30
2019-03-30T14:41:33.695Z,42.10
2019-03-30T14:43:09.927Z,40.90
2019-03-30T14:44:46.319Z,41.90
2019-03-30T14:46:22.593Z,42.10
2019-03-30T14:47:58.872Z,42.30
2019-03-30T14:49:35.042Z,42.70
2019-03-30T14:51:11.230Z,42.80
2019-03-30T14:52:47.539Z,43.70
2019-03-30T14:54:23.782Z,43.50
2019-03-30T14:56:00.213Z,43.60
2019-03-30T14:57:36.400Z,42.90
2019-03-30T14:59:14.407Z,43.30
2019-03-30T15:00:50.576Z,42.50
2019-03-30T15:02:26.900Z,42.20
2019-03-30T15:04:03.078Z,42.80
2019-03-30T15:05:39.184Z,43.10
2019-03-30T15:07:15.376Z,43.40
2019-03-30T15:08:51.871Z,42.80
2019-03-30T15:10:28.203Z,43.60
2019-03-30T15:12:04.512Z,43.60
2019-03-30T15:13:40.748Z,42.50
2019-03-30T15:15:17.660Z,42.40
2019-03-30T15:16:54.007Z,42.50
2019-03-30T15:18:30.284Z,42.90
2019-03-30T15:20:13.656Z,42.80
2019-03-30T15:21:50.267Z,43.50
2019-03-30T15:23:27.152Z,43.30
2019-03-30T15:25:08.330Z,43.40
2019-03-30T15:26:53.856Z,43.90
2019-03-30T15:28:22.399Z,43.50
2019-03-30T15:29:58.391Z,43.40
2019-03-30T15:31:34.496Z,43.90
2019-03-30T15:33:10.747Z,44.60
2019-03-30T15:34:46.919Z,44.50
2019-03-30T15:36:23.077Z,45.00
2019-03-30T15:37:59.328Z,44.80
2019-03-30T15:39:35.828Z,44.40
2019-03-30T15:41:12.308Z,45.00
2019-03-30T15:42:48.507Z,45.60
2019-03-30T15:44:24.912Z,45.70
2019-03-30T15:46:01.320Z,45.80
2019-03-30T15:47:37.730Z,46.00
2019-03-30T15:49:14.147Z,46.00
2019-03-30T15:50:50.386Z,46.30
2019-03-30T15:52:26.558Z,46.60
2019-03-30T15:54:02.804Z,46.70
2019-03-30T15:55:39.155Z,46.50
2019-03-30T16:01:44.297Z,47.40
2019-03-30T16:03:20.650Z,47.10
2019-03-30T16:04:56.753Z,47.20
2019-03-30T16:06:32.846Z,47.40
2019-03-30T16:08:09.095Z,47.80
2019-03-30T16:09:45.443Z,48.10
2019-03-30T16:11:21.625Z,48.20
2019-03-30T16:12:57.779Z,48.00
2019-03-30T16:14:34.053Z,48.00
2019-03-30T16:16:11.612Z,48.40
2019-03-30T16:17:47.819Z,49.10
2019-03-30T16:19:24.081Z,49.20
2019-03-30T16:21:00.297Z,49.70
2019-03-30T16:22:36.665Z,50.00
2019-03-30T16:24:12.968Z,50.40
2019-03-30T16:25:49.291Z,51.60
2019-03-30T16:27:29.111Z,52.50
2019-03-30T16:29:04.711Z,52.50
2019-03-30T16:30:40.952Z,52.60
2019-03-30T16:32:17.193Z,53.40
2019-03-30T16:33:53.440Z,53.90
2019-03-30T16:35:29.645Z,54.40
2019-03-30T16:37:05.954Z,54.30
2019-03-30T16:38:42.238Z,55.00
2019-03-30T16:40:18.478Z,55.70
2019-03-30T16:41:54.752Z,56.50
2019-03-30T16:43:30.993Z,56.70
2019-03-30T16:45:08.853Z,57.30
2019-03-30T16:46:45.164Z,57.30
2019-03-30T16:48:21.367Z,57.00
2019-03-30T16:49:57.536Z,57.80
2019-03-30T16:51:33.791Z,58.10
2019-03-30T16:53:10.099Z,58.40
2019-03-30T16:54:46.175Z,58.80
2019-03-30T16:56:22.426Z,59.10
2019-03-30T16:57:58.598Z,59.60
2019-03-30T16:59:34.744Z,59.70
2019-03-30T17:01:10.951Z,60.10
2019-03-30T17:02:47.298Z,60.40
2019-03-30T17:04:23.473Z,60.90
2019-03-30T17:05:59.640Z,61.00
2019-03-30T17:07:36.056Z,61.50
2019-03-30T17:09:12.253Z,61.80
2019-03-30T17:10:48.647Z,61.80
2019-03-30T17:12:24.671Z,61.90
2019-03-30T17:14:00.560Z,62.20
2019-03-30T17:15:36.733Z,62.10
2019-03-30T17:17:13.134Z,62.40
2019-03-30T17:18:49.300Z,62.50
2019-03-30T17:20:25.553Z,62.50
2019-03-30T17:22:01.786Z,62.50
2019-03-30T17:23:37.990Z,63.20
2019-03-30T17:25:14.440Z,63.60
2019-03-30T17:26:50.774Z,63.90
2019-03-30T17:28:27.072Z,64.30
2019-03-30T17:30:03.522Z,64.30
2019-03-30T17:31:39.829Z,64.70
2019-03-30T17:33:16.142Z,65.60
2019-03-30T17:34:52.409Z,65.10
2019-03-30T17:36:28.589Z,63.80
2019-03-30T17:38:05.701Z,65.40
2019-03-30T17:39:41.978Z,64.30
2019-03-30T17:41:17.909Z,64.70
2019-03-30T17:42:54.156Z,64.60
2019-03-30T17:44:30.400Z,65.00
2019-03-30T17:46:07.928Z,63.90
2019-03-30T17:47:44.100Z,64.40
2019-03-30T17:49:20.374Z,65.00
2019-03-30T17:50:58.398Z,65.60
2019-03-30T17:52:34.634Z,65.20
2019-03-30T17:54:10.969Z,65.90
2019-03-30T17:55:47.309Z,66.80
2019-03-30T17:57:23.481Z,67.10
2019-03-30T17:58:59.235Z,67.20
2019-03-30T18:00:35.803Z,66.50
2019-03-30T18:02:12.226Z,67.50
2019-03-30T18:03:48.477Z,68.00
2019-03-30T18:05:24.728Z,68.00
2019-03-30T18:07:01.173Z,68.10
2019-03-30T18:08:37.395Z,68.30
2019-03-30T18:10:14.000Z,68.50
2019-03-30T18:11:50.179Z,68.60
2019-03-30T18:13:26.352Z,68.90
2019-03-30T18:15:02.544Z,69.00
2019-03-30T18:16:38.773Z,69.30
2019-03-30T18:18:14.962Z,69.50
2019-03-30T18:19:52.339Z,69.80
2019-03-30T18:21:28.579Z,70.00
2019-03-30T18:23:04.820Z,70.20
2019-03-30T18:24:40.993Z,70.50
2019-03-30T18:26:16.871Z,70.60
2019-03-30T18:27:53.287Z,70.90
2019-03-30T18:29:29.614Z,71.00
2019-03-30T18:31:05.956Z,70.90
2019-03-30T18:32:43.244Z,71.30
2019-03-30T18:34:19.511Z,71.60
2019-03-30T18:35:55.933Z,71.40
2019-03-30T18:37:33.779Z,71.70
2019-03-30T18:39:10.369Z,72.10
2019-03-30T18:40:46.764Z,72.40
2019-03-30T18:42:24.134Z,73.40
2019-03-30T18:44:02.130Z,72.80
2019-03-30T18:45:38.023Z,73.20
2019-03-30T18:47:14.368Z,73.60
2019-03-30T18:48:50.730Z,73.90
2019-03-30T18:50:27.537Z,74.20
2019-03-30T18:52:04.455Z,74.30
2019-03-30T18:53:40.961Z,74.70
2019-03-30T18:55:21.751Z,74.80
2019-03-30T18:56:58.000Z,74.90
2019-03-30T18:58:41.502Z,75.10
2019-03-30T19:00:16.587Z,75.40
2019-03-30T19:01:52.864Z,75.70
2019-03-30T19:03:29.115Z,75.70
2019-03-30T19:05:06.838Z,76.00
2019-03-30T19:06:43.184Z,76.20
2019-03-30T19:08:19.396Z,76.40
2019-03-30T19:09:55.705Z,77.30
2019-03-30T19:11:34.883Z,76.70
2019-03-30T19:13:11.141Z,76.80
2019-03-30T19:14:47.459Z,76.90
2019-03-30T19:16:23.703Z,77.00
2019-03-30T19:18:01.207Z,77.20
2019-03-30T19:19:37.507Z,77.30
2019-03-30T19:21:14.059Z,77.50
2019-03-30T19:22:51.869Z,77.60
2019-03-30T19:24:29.256Z,78.00
2019-03-30T19:26:05.575Z,77.90
2019-03-30T19:27:41.829Z,78.20
2019-03-30T19:29:17.993Z,78.40
2019-03-30T19:30:54.342Z,78.30
2019-03-30T19:32:30.549Z,78.60
2019-03-30T19:34:06.742Z,78.70
2019-03-30T19:35:43.437Z,78.80
2019-03-30T19:37:19.789Z,79.00
2019-03-30T19:38:56.102Z,79.00
2019-03-30T19:40:32.417Z,79.10
2019-03-30T19:42:08.785Z,79.20
2019-03-30T19:43:44.938Z,79.40
2019-03-30T19:45:21.207Z,79.70
2019-03-30T19:46:57.595Z,79.90
2019-03-30T19:48:36.952Z,80.10
2019-03-30T19:50:13.588Z,80.40
2019-03-30T19:51:49.877Z,80.50
2019-03-30T19:53:26.074Z,80.70
2019-03-30T19:55:02.401Z,81.00
2019-03-30T19:56:38.804Z,81.10
2019-03-30T19:58:15.148Z,81.50
2019-03-30T19:59:51.469Z,81.40
2019-03-30T20:01:27.786Z,81.80
2019-03-30T20:03:04.441Z,82.10
2019-03-30T20:04:40.872Z,82.40
2019-03-30T20:06:17.226Z,82.70
2019-03-30T20:07:53.627Z,82.80
2019-03-30T20:09:30.047Z,83.10
2019-03-30T20:11:09.455Z,83.30
2019-03-30T20:12:49.666Z,83.50
2019-03-30T20:14:25.934Z,83.40
2019-03-30T20:16:02.320Z,83.80
2019-03-30T20:17:38.554Z,83.80
2019-03-30T20:19:14.645Z,84.10
2019-03-30T20:20:52.038Z,84.20
2019-03-30T20:22:28.151Z,84.20
2019-03-30T20:24:04.729Z,84.50
2019-03-30T20:25:41.103Z,84.60
2019-03-30T20:27:17.198Z,84.70
2019-03-30T20:28:53.431Z,85.30
2019-03-30T20:30:29.771Z,85.00
2019-03-30T20:32:05.813Z,85.30
2019-03-30T20:33:42.130Z,85.40
2019-03-30T20:35:18.510Z,85.50
2019-03-30T20:36:54.927Z,85.50
2019-03-30T20:38:31.115Z,86.00
2019-03-30T20:40:10.330Z,86.10
2019-03-30T20:41:46.655Z,86.10
2019-03-30T20:43:23.029Z,86.30
2019-03-30T20:45:00.906Z,86.40
2019-03-30T20:46:37.002Z,87.30
2019-03-30T20:48:13.247Z,86.80